Alagon, Spain
Current Conditions -  °F | °C
As of 3:00 PM on Monday 20 Oct 2014 (Local Time) from LEZG Reporting Station
Clear Clear  
Wind Chill: 81°   Ceiling: Unl
Heat Index: 81°   Visibility: 6mi
Dew Point: 46°   Wind: 3mph
Humidity: 30%   Direction: 100°E
Pressure: 30.15"   Gusts: NA
Location:  41.77°N, 1.12°W
Report Text: LEZG 201300Z 10003KT 050V150 CAVOK 27/08 Q1021
Loading
Personal Weather Stations






























Interactive Weather Map
Tropical Storm Tracking
New forecast layout! Learn more

10-Day Weather Forecast

Advertisements
Track Severe Weather on mobile